• Join FlightAware (Why Join?)
  • Login
  • US Flag 
04:28PM EDT


 

Airport Tracker/Info


-or-


 

Live Flight TrackerFlight Track Log ✈ UAL1058 ✈ 13-Jul-2013 ✈ MMUN / CUN - KIAH

Flight Track Log - Related Links

Times and Time Zones

All times are in EDT time to prevent confusion due to time zone crossing. See the UAL1058 flight status page for this flight to view local times or setup timezone preferences in your user account.

Time Position Orientation Groundspeed Altitude Reporting Facility
EDT Latitude Longitude Course Direction KTS MPH feet Rate Location/Type
06:41PM 21.0240 -86.8570 124° Southeast 800  Level FlightAware
06:41PM 21.0120 -86.8390 126° Southeast 184 212 1,500 1,620 Climbing FlightAware
06:42PM 20.9970 -86.8160 125° Southeast 227 261 2,100 1,980 Climbing FlightAware
06:42PM 20.9800 -86.7880 123° Southeast 254 292 3,300 2,520 Climbing FlightAware
06:43PM 20.9730 -86.7770 124° Southeast 256 295 3,700 3,300 Climbing FlightAware
06:43PM 20.9520 -86.7430 123° Southeast 269 310 5,400 3,360 Climbing FlightAware
06:44PM 20.9320 -86.7110 124° Southeast 271 312 7,000 3,240 Climbing FlightAware
06:44PM 20.9540 -86.6510 69° East 286 329 9,500 3,180 Climbing FlightAware
06:45PM 20.9740 -86.6450 16° North 294 338 10,200 2,700 Climbing FlightAware
06:45PM 21.0070 -86.6540 346° North 302 348 11,300 1,920 Climbing FlightAware
06:46PM 21.0670 -86.6810 337° Northwest 346 398 12,400 1,680 Climbing FlightAware
06:46PM 21.1390 -86.6990 347° North 373 429 13,800 2,040 Climbing FlightAware
06:47PM 21.2120 -86.7150 348° North 387 445 15,400 2,580 Climbing FlightAware
06:48PM 21.2820 -86.7310 348° North 382 440 17,400 2,700 Climbing FlightAware
06:48PM 21.3580 -86.7500 347° North 383 441 19,200 2,040 Climbing FlightAware
06:49PM 21.4230 -86.7650 348° North 392 451 20,200 1,560 Climbing FlightAware
06:50PM 21.5010 -86.7840 347° North 407 468 21,300 1,380 Climbing FlightAware
06:50PM 21.5720 -86.8010 347° North 419 482 22,100 1,440 Climbing FlightAware
06:51PM 21.6510 -86.8190 348° North 427 491 23,200 1,560 Climbing FlightAware
06:52PM 21.7320 -86.8390 347° North 432 497 24,300 1,320 Climbing FlightAware
06:52PM 21.7910 -86.8530 348° North 434 499 25,000 1,380 Climbing FlightAware
06:53PM 21.9030 -86.8800 347° North 446 513 26,300 1,380 Climbing FlightAware
06:54PM 21.9850 -86.8990 348° North 452 520 27,100 1,140 Climbing FlightAware
06:55PM 22.0560 -86.9160 347° North 458 527 27,800 1,080 Climbing FlightAware
06:55PM 22.1370 -86.9360 347° North 462 532 28,600 1,020 Climbing FlightAware
06:56PM 22.2010 -86.9510 348° North 462 532 29,200 1,140 Climbing FlightAware
06:57PM 22.3100 -86.9680 352° North 468 539 30,200 1,200 Climbing FlightAware
06:57PM 22.3870 -86.9750 355° North 470 541 31,000 1,380 Climbing FlightAware
06:58PM 22.4640 -87.0160 334° Northwest 456 525 31,800 1,260 Climbing FlightAware
06:59PM 22.5230 -87.0960 309° West 455 524 32,600 1,020 Climbing FlightAware
06:59PM 22.5750 -87.1670 308° West 458 527 33,300 840 Climbing FlightAware
07:00PM 22.6460 -87.2470 314° West 460 529 34,000 360 Climbing FlightAware
07:01PM 22.7200 -87.3140 320° Northwest 455 524 34,000  Level FlightAware
07:02PM 22.7980 -87.3840 320° Northwest 453 521 34,000  Level FlightAware
07:02PM 22.8590 -87.4380 321° Northwest 453 521 34,000  Level FlightAware
07:03PM 22.9190 -87.4920 320° Northwest 454 522 34,000  Level FlightAware
07:04PM 22.9830 -87.5480 321° Northwest 454 522 34,000  Level FlightAware
07:04PM 23.0520 -87.6100 320° Northwest 464 534 34,000  Level FlightAware
07:05PM 23.1310 -87.6800 321° Northwest 468 539 34,000  Level FlightAware
07:06PM 23.1890 -87.7310 321° Northwest 469 540 34,000  Level FlightAware
07:06PM 23.2670 -87.8010 321° Northwest 469 540 34,000  Level FlightAware
07:07PM 23.3400 -87.8650 321° Northwest 469 540 34,000  Level FlightAware
07:08PM 23.4030 -87.9200 321° Northwest 468 539 34,000  Level FlightAware
07:08PM 23.4720 -87.9800 321° Northwest 466 536 34,000  Level FlightAware
07:10PM 23.5790 -88.0760 321° Northwest 465 535 34,000  Level FlightAware
07:10PM 23.6260 -88.1320 312° West 463 533 34,000  Level FlightAware
07:11PM 23.6930 -88.2360 305° West 460 529 34,000  Level FlightAware
07:12PM 23.7500 -88.3530 298° West 460 529 34,000  Level FlightAware
07:13PM 23.7980 -88.4480 299° West 460 529 34,000  Level FlightAware
07:13PM 23.8280 -88.5110 298° West 460 529 34,000  Level FlightAware
07:14PM 23.8710 -88.5990 298° West 460 529 34,000  Level FlightAware
07:15PM 23.9010 -88.6610 298° West 460 529 34,000  Level FlightAware
07:16PM 23.9420 -88.7450 298° West 460 529 34,000  Level FlightAware
07:16PM 23.9730 -88.8100 298° West 460 529 34,000  Level FlightAware
07:17PM 24.0040 -88.8730 298° West 460 529 34,000  Level FlightAware
07:18PM 24.0450 -88.9570 298° West 460 529 34,000  Level FlightAware
07:19PM 24.1710 -89.1980 300° West 462 532 34,000  Level FlightAware
07:19PM 24.2020 -89.2630 298° West 462 532 34,000  Level FlightAware
07:20PM 24.2430 -89.3480 298° West 462 532 34,000  Level FlightAware
07:21PM 24.2740 -89.4110 298° West 462 532 34,000  Level FlightAware
07:22PM 24.3250 -89.5170 298° West 462 532 34,000  Level FlightAware
07:23PM 24.3660 -89.6010 298° West 462 532 34,000  Level FlightAware
07:23PM 24.3970 -89.6650 298° West 462 532 34,000  Level FlightAware
07:24PM 24.4280 -89.7280 298° West 462 532 34,000  Level FlightAware
07:25PM 24.4690 -89.8140 298° West 462 532 34,000  Level FlightAware
07:25PM 24.5000 -89.8780 298° West 462 532 34,000  Level FlightAware
07:26PM 24.5400 -89.9610 298° West 462 532 34,000  Level FlightAware
07:27PM 24.5710 -90.0240 298° West 462 532 34,000  Level FlightAware
07:27PM 24.6120 -90.1090 298° West 462 532 34,000  Level FlightAware
07:28PM 24.6430 -90.1740 298° West 462 532 34,000  Level FlightAware
07:31PM 24.8840 -90.3934 320° Northwest  Level Estimated
07:32PM 24.9810 -90.4819 320° Northwest  Level Estimated
07:33PM 25.0779 -90.5706 320° Northwest  Level Estimated
07:34PM 25.1748 -90.6595 320° Northwest  Level Estimated
07:35PM 25.2716 -90.7485 320° Northwest  Level Estimated
07:36PM 25.3684 -90.8376 320° Northwest  Level Estimated
07:37PM 25.4651 -90.9269 320° Northwest  Level Estimated
07:38PM 25.5617 -91.0163 320° Northwest  Level Estimated
07:39PM 25.6583 -91.1059 320° Northwest  Level Estimated
07:40PM 25.7549 -91.1956 320° Northwest  Level Estimated
07:41PM 25.8514 -91.2855 320° Northwest  Level Estimated
07:42PM 25.9478 -91.3755 320° Northwest  Level Estimated
07:43PM 26.0442 -91.4656 320° Northwest  Level Estimated
07:44PM 26.1405 -91.5559 320° Northwest  Level Estimated
07:44PM 26.6156 -91.5114 320° Northwest 494 568 34,000  Level Houston Center
07:45PM 26.2368 -91.6464 320° Northwest  Level Estimated
07:45PM 26.6992 -91.5681 329° Northwest 442 509 34,000  Level Houston Center
07:46PM 26.3330 -91.7370 320° Northwest  Level Estimated
07:47PM 26.8103 -91.6575 324° Northwest 438 504 34,000  Level Houston Center
07:47PM 26.4291 -91.8277 320° Northwest  Level Estimated
07:48PM 26.5252 -91.9186 320° Northwest  Level Estimated
07:48PM 26.8972 -91.7269 325° Northwest 440 506 33,900  Level Houston Center
07:49PM 26.6213 -92.0097 320° Northwest  Level Estimated
07:49PM 27.0175 -91.8217 325° Northwest 440 506 33,900  Level Houston Center
07:50PM 26.7173 -92.1009 320° Northwest  Level Estimated
07:50PM 27.1167 -91.9039 324° Northwest 441 507 34,000  Level Houston Center
07:51PM 27.2167 -91.9839 325° Northwest 442 509 33,900 -60 Descending Houston Center
07:52PM 27.3158 -92.0636 324° Northwest 439 505 33,900  Level Houston Center
07:53PM 27.4142 -92.1447 324° Northwest 439 505 34,000  Climbing Houston Center
07:54PM 27.5131 -92.2228 325° Northwest 436 502 34,000  Level Houston Center
07:55PM 27.6103 -92.3028 324° Northwest 434 499 34,000 -60 Level Houston Center
07:56PM 27.7067 -92.3811 324° Northwest 429 494 33,900  Descending Houston Center
07:57PM 27.8206 -92.4739 324° Northwest 423 487 34,000  Climbing Houston Center
07:58PM 27.9150 -92.5511 324° Northwest 420 483 33,900 -60 Descending Houston Center
07:59PM 28.0086 -92.6306 323° Northwest 420 483 33,900  Level Houston Center
08:00PM 28.1047 -92.7089 324° Northwest 425 489 34,000  Climbing Houston Center
08:01PM 28.1997 -92.7878 324° Northwest 425 489 34,000 -60 Level Houston Center
08:02PM 28.2939 -92.8686 323° Northwest 423 487 33,900  Descending Houston Center
08:03PM 28.3753 -92.9669 313° West 427 491 34,000  Climbing Houston Center
08:04PM 28.4578 -93.0619 315° West 424 488 34,000  Level Houston Center
08:05PM 28.5392 -93.1578 314° West 422 486 34,000 -960 Level Houston Center
08:11PM 29.0328 -93.7422 314° West 437 503 27,600 -1,260 Descending FlightAware ADS-B
08:11PM 29.0763 -93.7944 314° West 437 503 26,200 -2,640 Descending FlightAware ADS-B
08:12PM 29.1197 -93.8462 314° West 443 510 24,900 -2,580 Descending FlightAware ADS-B
08:12PM 29.1645 -93.8996 314° West 442 509 23,500 -2,640 Descending FlightAware ADS-B
08:13PM 29.2064 -93.9500 314° West 431 496 22,200 -2,520 Descending FlightAware ADS-B
08:13PM 29.2470 -93.9992 313° West 420 483 21,000 -2,460 Descending FlightAware ADS-B
08:14PM 29.2879 -94.0484 314° West 411 473 19,700 -2,520 Descending FlightAware ADS-B
08:14PM 29.3301 -94.0990 314° West 402 463 18,400 -2,400 Descending FlightAware ADS-B
08:15PM 29.3685 -94.1452 314° West 393 452 17,200 -2,400 Descending FlightAware ADS-B
08:15PM 29.4058 -94.1905 313° West 386 444 16,000 -2,340 Descending FlightAware ADS-B
08:16PM 29.4447 -94.2372 314° West 378 435 14,800 -2,280 Descending FlightAware ADS-B
08:16PM 29.4810 -94.2810 314° West 371 427 13,700 -1,620 Descending FlightAware ADS-B
08:17PM 29.5159 -94.3234 313° West 354 407 13,200 -840 Descending FlightAware ADS-B
08:17PM 29.5300 -94.3435 309° West 351 404 13,100 -660 Descending FlightAware ADS-B
08:17PM 29.5433 -94.3679 302° West 348 400 12,900 -1,080 Descending FlightAware ADS-B
08:18PM 29.5643 -94.4165 296° West 334 384 12,300 -1,020 Descending FlightAware ADS-B
08:18PM 29.5841 -94.4631 296° West 313 360 11,900 -1,020 Descending FlightAware ADS-B
08:19PM 29.6028 -94.5072 296° West 301 346 11,300 -1,380 Descending FlightAware ADS-B
08:19PM 29.6214 -94.5504 296° West 300 345 10,500 -1,440 Descending FlightAware ADS-B
08:20PM 29.6371 -94.5869 296° West 291 335 10,000 -1,200 Descending FlightAware ADS-B
08:20PM 29.6458 -94.6078 296° West 288 331 9,700 -1,440 Descending FlightAware ADS-B
08:20PM 29.6548 -94.6289 296° West 285 328 9,300 -1,740 Descending FlightAware ADS-B
08:20PM 29.6583 -94.6363 299° West 284 327 9,100 -1,680 Descending FlightAware ADS-B
08:20PM 29.6618 -94.6426 303° West 284 327 9,000 -1,380 Descending FlightAware ADS-B
08:21PM 29.6648 -94.6474 306° West 283 326 8,900 -1,500 Descending FlightAware ADS-B
08:21PM 29.6678 -94.6520 307° West 282 325 8,800 -1,500 Descending FlightAware ADS-B
08:21PM 29.6716 -94.6569 312° West 282 325 8,700 -1,380 Descending FlightAware ADS-B
08:21PM 29.6759 -94.6622 313° West 282 325 8,600 -1,500 Descending FlightAware ADS-B
08:21PM 29.6790 -94.6656 316° Northwest 282 325 8,500 -1,740 Descending FlightAware ADS-B
08:21PM 29.6826 -94.6691 320° Northwest 282 325 8,400 -2,040 Descending FlightAware ADS-B
08:21PM 29.6879 -94.6740 321° Northwest 281 323 8,200 -1,500 Descending FlightAware ADS-B
08:21PM 29.7040 -94.6874 324° Northwest 280 322 7,900 -1,200 Descending FlightAware ADS-B
08:21PM 29.7199 -94.7006 324° Northwest 276 318 7,600 -1,200 Descending FlightAware ADS-B
08:22PM 29.7360 -94.7141 324° Northwest 270 311 7,300 -1,140 Descending FlightAware ADS-B
08:22PM 29.7521 -94.7275 324° Northwest 266 306 7,000 -1,260 Descending FlightAware ADS-B
08:22PM 29.7596 -94.7339 323° Northwest 267 307 6,800 -1,860 Descending FlightAware ADS-B
08:22PM 29.7641 -94.7382 320° Northwest 269 310 6,600 -1,800 Descending FlightAware ADS-B
08:22PM 29.7686 -94.7430 317° Northwest 270 311 6,500 -1,500 Descending FlightAware ADS-B
08:23PM 29.7817 -94.7587 314° West 270 311 6,100 -1,620 Descending FlightAware ADS-B
08:23PM 29.7947 -94.7747 313° West 271 312 5,700 -1,800 Descending FlightAware ADS-B
08:23PM 29.8081 -94.7909 314° West 273 314 5,200 -1,800 Descending FlightAware ADS-B
08:23PM 29.8217 -94.8073 314° West 276 318 4,800 -1,800 Descending FlightAware ADS-B
08:24PM 29.8353 -94.8237 314° West 277 319 4,300 -1,380 Descending FlightAware ADS-B
08:24PM 29.8490 -94.8404 313° West 277 319 4,100 -600 Descending FlightAware ADS-B
08:24PM 29.8625 -94.8569 313° West 276 318 4,000 -600 Descending FlightAware ADS-B
08:24PM 29.8669 -94.8627 311° West 279 321 3,900 -1,380 Descending FlightAware ADS-B
08:24PM 29.8695 -94.8665 308° West 280 322 3,800 -1,740 Descending FlightAware ADS-B
08:24PM 29.8719 -94.8702 307° West 280 322 3,700 -1,740 Descending FlightAware ADS-B
08:24PM 29.8748 -94.8752 304° West 282 325 3,600 -2,040 Descending FlightAware ADS-B
08:24PM 29.8781 -94.8816 301° West 283 326 3,400 -2,040 Descending FlightAware ADS-B
08:24PM 29.8810 -94.8880 298° West 283 326 3,300 -1,380 Descending FlightAware ADS-B
08:25PM 29.8835 -94.8943 295° West 283 326 3,200 -540 Descending FlightAware ADS-B
08:25PM 29.8935 -94.9204 294° West 279 321 3,100 -180 Descending FlightAware ADS-B
08:25PM 29.9030 -94.9448 294° West 276 318 3,100  Level FlightAware ADS-B
08:26PM 29.9132 -94.9708 294° West 277 319 3,100  Level FlightAware ADS-B
08:26PM 29.9214 -94.9915 295° West 277 319 3,100  Level FlightAware ADS-B
08:26PM 29.9296 -95.0125 294° West 280 322 3,100  Level FlightAware ADS-B
08:26PM 29.9364 -95.0298 294° West 278 320 3,100 -180 Level FlightAware ADS-B
08:27PM 29.9519 -95.0697 294° West 260 299 3,000 -180 Descending FlightAware ADS-B
08:27PM 29.9570 -95.0829 294° West 253 291 3,000  Level FlightAware ADS-B
08:27PM 29.9640 -95.1008 294° West 236 272 3,000  Level FlightAware ADS-B
08:28PM 29.9756 -95.1316 290° West 213 245 3,000 -180 Level FlightAware ADS-B
08:28PM 29.9772 -95.1403 278° West 208 239 2,900 -840 Descending FlightAware ADS-B
08:28PM 29.9775 -95.1566 269° West 209 241 2,700 -1,200 Descending FlightAware ADS-B
08:28PM 29.9775 -95.1871 270° West 205 236 2,100 -1,200 Descending FlightAware ADS-B
08:29PM 29.9776 -95.2052 270° West 197 227 1,800 -960 Descending FlightAware ADS-B
08:29PM 29.9777 -95.2211 270° West 189 217 1,600 -780 Descending FlightAware ADS-B
08:29PM 29.9775 -95.2353 269° West 177 204 1,400 -1,080 Descending FlightAware ADS-B
08:30PM 29.9775 -95.2481 270° West 166 191 1,100 -1,080 Descending FlightAware ADS-B
08:30PM 29.9775 -95.2564 270° West 162 186 1,000 -840 Descending FlightAware ADS-B
08:30PM 29.9777 -95.2678 271° West 162 186 800 -900 Descending FlightAware ADS-B
08:30PM 29.9777 -95.2735 270° West 162 186 700 -900 Descending FlightAware ADS-B
08:30PM 29.9776 -95.2804 269° West 162 186 600 -1,020 Descending FlightAware ADS-B
08:30PM 29.9776 -95.2939 270° West 160 184 300 -1,140 Descending FlightAware ADS-B